»·PEaware :: N789AV KSMX-KBFL

N789AV :: KSMX-KBFL

FLIGHT INFORMATION

Flight Status: Arrived
Operator: Privately registered:
United States
More flights under this callsign
Pilot: Adrian V. (1506)
Aircraft: CESSNA 172 SKYHAWK
(C172)
More flights by this aircraft type
Origin: KSMX Santa Maria Pub/Capt Hancock
United States
Destination: KBFL Meadows
United States
More flights between these airports :: More routes between these airports
Route:
File this flight plan on PilotEdge
Remarks:
Altitude:
(Current/Filed)
7,500ft
Speed:
(Current/Filed)
130kts
Departed: 01-Feb-19 11:54 AM
Arrived: 01-Feb-19 12:33 PM
Distance/Time
Traveled:
76nm/0:39
Distance/Time
To Go:
Arrived

Flight Plot

Page will automatically refresh every two minutes.


Map Options




Map Legend


Flown Route
Filed Route
Departure Airport
Arrival Airport
Navaid (VOR, NDB)
Fix

Horizontal Profiles

Position Reports

Time Latitude Longitude Heading Altitude Ground
Speed
01-Feb-19 11:44 34.900720 -120.451574 228 265ft 0kts
01-Feb-19 11:45 34.900720 -120.451574 228 265ft 0kts
01-Feb-19 11:46 34.900720 -120.451574 228 265ft 0kts
01-Feb-19 11:47 34.900720 -120.451574 228 265ft 0kts
01-Feb-19 11:48 34.900720 -120.451574 228 265ft 0kts
01-Feb-19 11:49 34.903601 -120.456308 316 265ft 31kts
01-Feb-19 11:50 34.907252 -120.460684 316 265ft 38kts
01-Feb-19 11:51 34.908987 -120.463238 239 265ft 0kts
01-Feb-19 11:52 34.908804 -120.463507 224 265ft 0kts
01-Feb-19 11:53 34.907830 -120.463803 133 265ft 0kts
01-Feb-19 11:54 34.905733 -120.461291 135 272ft 73kts
01-Feb-19 11:55 34.893580 -120.437385 57 1541ft 85kts
01-Feb-19 11:56 34.912657 -120.419765 38 2812ft 86kts
01-Feb-19 11:57 34.928277 -120.398752 54 3993ft 83kts
01-Feb-19 11:58 34.940198 -120.375402 60 5058ft 80kts
01-Feb-19 11:58 34.948583 -120.356162 62 5816ft 76kts
01-Feb-19 11:59 34.958019 -120.332931 63 6677ft 76kts
01-Feb-19 12:00 34.967036 -120.309854 64 7460ft 77kts
01-Feb-19 12:01 34.980219 -120.275191 65 7503ft 138kts
01-Feb-19 12:02 34.997124 -120.230494 65 7500ft 147kts
01-Feb-19 12:04 35.015009 -120.183266 65 7499ft 147kts
01-Feb-19 12:05 35.032205 -120.137825 65 7499ft 147kts
01-Feb-19 12:05 35.046559 -120.099852 65 7499ft 147kts
01-Feb-19 12:06 35.063713 -120.054364 65 7499ft 147kts
01-Feb-19 12:07 35.080819 -120.008940 65 7499ft 147kts
01-Feb-19 12:08 35.097980 -119.963332 65 7499ft 147kts
01-Feb-19 12:09 35.115214 -119.917469 65 7499ft 147kts
01-Feb-19 12:10 35.132304 -119.871952 65 7499ft 147kts
01-Feb-19 12:11 35.149401 -119.826345 65 7499ft 147kts
01-Feb-19 12:12 35.166444 -119.780815 65 7499ft 147kts
01-Feb-19 12:13 35.183506 -119.735169 65 7499ft 147kts
01-Feb-19 12:14 35.200547 -119.689512 65 7499ft 147kts
01-Feb-19 12:15 35.217371 -119.644375 65 7499ft 147kts
01-Feb-19 12:16 35.234426 -119.598543 65 7499ft 147kts
01-Feb-19 12:17 35.251402 -119.552827 65 7499ft 147kts
01-Feb-19 12:18 35.268353 -119.507154 65 7499ft 147kts
01-Feb-19 12:19 35.284996 -119.462244 65 7499ft 147kts
01-Feb-19 12:20 35.301897 -119.416577 65 7499ft 147kts
01-Feb-19 12:21 35.318825 -119.370767 65 7499ft 147kts
01-Feb-19 12:22 35.335123 -119.326541 66 7502ft 127kts
01-Feb-19 12:23 35.348598 -119.289384 65 6887ft 147kts
01-Feb-19 12:24 35.365391 -119.246725 63 5058ft 126kts
01-Feb-19 12:25 35.378781 -119.209050 72 3579ft 119kts
01-Feb-19 12:26 35.386693 -119.171809 74 2510ft 113kts
01-Feb-19 12:27 35.396144 -119.137838 57 1923ft 116kts
01-Feb-19 12:28 35.413063 -119.102707 63 1639ft 114kts
01-Feb-19 12:29 35.415559 -119.069558 136 1512ft 91kts
01-Feb-19 12:30 35.410575 -119.043761 39 1030ft 106kts
01-Feb-19 12:31 35.426738 -119.051023 315 595ft 67kts
01-Feb-19 12:32 35.434126 -119.060880 228 499ft 0kts
01-Feb-19 12:33 35.434126 -119.060880 228 499ft 0kts
01-Feb-19 12:34 35.432309 -119.059356 205 499ft 13kts
01-Feb-19 12:35 35.431797 -119.059844 216 499ft 0kts
01-Feb-19 12:36 35.431797 -119.059844 216 499ft 0kts

Navigation Log

Ident Type
Flight plan parsing failed, navigation log unavailable